Time;durP1;ratioP1;P1;durP2;ratioP2;P2;SDS_P1;SDS_P2;PMS_P1;PMS_P2;Temp;Humidity;BMP_temperature;BMP_pressure;BME280_temperature;BME280_humidity;BME280_pressure;Samples;Min_cycle;Max_cycle;Signal;HPM_P1;HPM_P2
2023/03/28 00:01:02;;;;;;;5.20;2.00;;;;;;;5.69;53.64;102614.25;4895239;28;114218;-67
2023/03/28 00:03:34;;;;;;;6.25;1.85;;;;;;;5.66;53.52;102609.81;4922289;28;124137;-67
2023/03/28 00:06:04;;;;;;;10.15;2.10;;;;;;;5.64;53.57;102611.56;4901967;28;124533;-67
2023/03/28 00:08:32;;;;;;;5.03;2.20;;;;;;;5.63;53.85;102615.09;4902674;28;113935;-67
2023/03/28 00:11:18;;;;;;;7.05;2.10;;;;;;;5.61;53.64;102616.84;4918208;28;113930;-66
2023/03/28 00:13:49;;;;;;;9.23;2.13;;;;;;;5.60;53.54;102620.31;4917255;28;124164;-66
2023/03/28 00:16:16;;;;;;;10.52;2.20;;;;;;;5.56;53.77;102613.31;4916499;28;123921;-66
2023/03/28 00:18:43;;;;;;;6.65;2.17;;;;;;;5.55;53.83;102611.53;4899509;28;115136;-66
2023/03/28 00:21:22;;;;;;;8.93;2.53;;;;;;;5.52;54.04;102606.28;4903291;28;112288;-67
2023/03/28 00:23:52;;;;;;;10.10;2.50;;;;;;;5.52;53.63;102615.91;4899772;28;123652;-67
2023/03/28 00:26:25;;;;;;;6.05;2.13;;;;;;;5.50;54.02;102608.03;4916606;28;123926;-67
2023/03/28 00:28:54;;;;;;;6.00;2.22;;;;;;;5.49;53.91;102616.78;4916081;28;114544;-67
2023/03/28 00:31:23;;;;;;;5.22;1.90;;;;;;;5.47;53.74;102608.00;4899063;28;112273;-67
2023/03/28 00:33:51;;;;;;;8.15;2.38;;;;;;;5.46;54.09;102606.22;4893753;28;125005;-67
2023/03/28 00:36:25;;;;;;;9.35;2.65;;;;;;;5.44;53.90;102606.25;4893116;28;122940;-67
2023/03/28 00:38:52;;;;;;;7.95;2.28;;;;;;;5.42;53.78;102605.34;4883853;28;114364;-67
2023/03/28 00:41:20;;;;;;;8.20;2.20;;;;;;;5.42;53.82;102609.72;4904197;28;115036;-67
2023/03/28 00:43:51;;;;;;;5.03;1.98;;;;;;;5.38;53.79;102613.22;4904754;28;124028;-67
2023/03/28 00:46:23;;;;;;;8.52;2.08;;;;;;;5.34;53.87;102611.44;4882812;28;123149;-67
2023/03/28 00:49:04;;;;;;;9.60;1.98;;;;;;;5.29;53.88;102603.50;4894341;28;115989;-67
2023/03/28 00:51:38;;;;;;;7.97;2.25;;;;;;;5.26;53.91;102612.28;4902181;28;113907;-67
2023/03/28 00:54:08;;;;;;;9.40;1.90;;;;;;;5.24;54.22;102611.38;4904269;28;123962;-67
2023/03/28 00:56:36;;;;;;;8.82;2.60;;;;;;;5.22;54.16;102613.13;4899638;28;124189;-72
2023/03/28 00:59:09;;;;;;;8.93;2.20;;;;;;;5.21;54.24;102611.34;4905146;28;113837;-66
2023/03/28 01:01:37;;;;;;;8.85;1.92;;;;;;;5.20;54.07;102614.88;4890359;28;113250;-66
2023/03/28 01:04:05;;;;;;;8.90;2.08;;;;;;;5.18;54.15;102614.00;4890620;28;123277;-67
2023/03/28 01:06:39;;;;;;;7.25;2.42;;;;;;;5.15;54.39;102616.59;4905960;28;124395;-67
2023/03/28 01:09:08;;;;;;;6.28;2.13;;;;;;;5.12;54.27;102611.31;4892804;28;116862;-67
2023/03/28 01:11:39;;;;;;;9.93;2.20;;;;;;;5.11;54.41;102609.56;4899897;28;114303;-67
2023/03/28 01:14:14;;;;;;;8.07;2.22;;;;;;;5.10;54.48;102613.03;4890543;28;123645;-68
2023/03/28 01:16:41;;;;;;;10.80;2.08;;;;;;;5.08;54.13;102609.53;4887441;28;121842;-66
2023/03/28 01:19:28;;;;;;;5.68;2.08;;;;;;;5.05;54.41;102607.78;4882942;28;113187;-66
2023/03/28 01:22:40;;;;;;;8.68;2.30;;;;;;;5.03;54.19;102608.66;4895788;28;113145;-66
2023/03/28 01:25:42;;;;;;;8.02;2.08;;;;;;;4.99;54.20;102606.84;4860470;28;123337;-66
2023/03/28 01:28:44;;;;;;;5.70;2.22;;;;;;;4.96;54.48;102604.22;4902862;28;123957;-66
2023/03/28 01:31:31;;;;;;;7.13;2.58;;;;;;;4.92;54.31;102603.31;4904607;28;114592;-67
2023/03/28 01:34:39;;;;;;;7.35;2.35;;;;;;;4.87;54.55;102608.50;4904122;28;114475;-67
2023/03/28 01:37:09;;;;;;;9.70;2.47;;;;;;;4.86;54.60;102604.16;4905517;28;123078;-67
2023/03/28 01:40:05;;;;;;;7.03;2.00;;;;;;;4.83;54.45;102598.88;4885893;28;126366;-66
2023/03/28 01:42:44;;;;;;;9.82;2.30;;;;;;;4.81;54.67;102605.84;4885789;28;113488;-66
2023/03/28 01:45:31;;;;;;;7.07;2.42;;;;;;;4.79;54.64;102594.47;4885800;28;113327;-67
2023/03/28 01:48:05;;;;;;;12.23;2.63;;;;;;;4.77;54.84;102604.09;4904389;28;123753;-67
2023/03/28 01:50:57;;;;;;;8.25;2.30;;;;;;;4.76;54.59;102601.44;4897667;28;124603;-66
2023/03/28 01:53:50;;;;;;;9.95;2.65;;;;;;;4.74;54.99;102598.78;4892723;28;113452;-66
2023/03/28 01:56:51;;;;;;;5.50;1.90;;;;;;;4.74;54.62;102601.41;4902358;28;113079;-66
2023/03/28 01:59:40;;;;;;;9.93;2.40;;;;;;;4.75;54.84;102604.94;4875335;28;123784;-66
2023/03/28 02:02:44;;;;;;;9.88;2.70;;;;;;;4.72;54.82;102599.66;4900181;28;124480;-67
2023/03/28 02:05:25;;;;;;;6.10;2.08;;;;;;;4.71;54.83;102598.78;4902899;28;113360;-68
2023/03/28 02:07:54;;;;;;;7.53;2.15;;;;;;;4.68;54.77;102593.50;4902896;28;113295;-66
2023/03/28 02:10:49;;;;;;;9.57;2.20;;;;;;;4.66;54.89;102584.75;4916701;28;124124;-67
2023/03/28 02:13:39;;;;;;;8.00;2.20;;;;;;;4.65;54.95;102590.84;4898471;28;124744;-66
2023/03/28 02:16:32;;;;;;;10.00;2.15;;;;;;;4.63;55.00;102584.72;4916333;28;114396;-67
2023/03/28 02:19:21;;;;;;;6.18;2.13;;;;;;;4.62;54.98;102588.22;4901871;28;113118;-67
2023/03/28 02:22:19;;;;;;;10.00;2.63;;;;;;;4.60;54.94;102589.97;4917468;28;124443;-67
2023/03/28 02:24:52;;;;;;;7.20;1.93;;;;;;;4.59;55.03;102593.44;4918186;28;124464;-67
2023/03/28 02:27:38;;;;;;;8.73;2.50;;;;;;;4.58;54.83;102596.94;4905057;28;118427;-67
2023/03/28 02:30:16;;;;;;;8.35;2.47;;;;;;;4.57;54.96;102595.16;4919142;28;115058;-67
2023/03/28 02:32:49;;;;;;;11.93;2.53;;;;;;;4.55;54.77;102596.91;4912758;28;124219;-67
2023/03/28 02:35:25;;;;;;;6.88;2.17;;;;;;;4.53;54.86;102589.00;4895585;28;124312;-67
2023/03/28 02:38:17;;;;;;;6.07;2.17;;;;;;;4.51;55.10;102587.25;4889471;28;113383;-67
2023/03/28 02:41:05;;;;;;;10.20;2.60;;;;;;;4.47;55.08;102592.47;4884244;28;113874;-67
2023/03/28 02:44:02;;;;;;;7.80;2.33;;;;;;;4.45;55.25;102586.34;4889610;28;123436;-67
2023/03/28 02:46:32;;;;;;;9.05;2.42;;;;;;;4.45;54.99;102588.09;4899421;28;123970;-67
2023/03/28 02:49:40;;;;;;;7.22;2.47;;;;;;;4.43;55.04;102588.06;4905324;28;114608;-67
2023/03/28 02:52:19;;;;;;;8.07;2.55;;;;;;;4.42;55.12;102591.53;4889834;28;113218;-66
2023/03/28 02:55:04;;;;;;;10.38;2.53;;;;;;;4.40;55.20;102587.16;4886711;28;123588;-67
2023/03/28 02:57:45;;;;;;;7.22;2.40;;;;;;;4.38;55.05;102595.00;4887826;28;122943;-67
2023/03/28 03:00:18;;;;;;;8.80;2.30;;;;;;;4.37;55.42;102589.75;4883873;28;114584;-67
2023/03/28 03:02:49;;;;;;;7.43;2.60;;;;;;;4.37;55.34;102592.38;4886377;28;113709;-67
2023/03/28 03:05:19;;;;;;;8.70;2.63;;;;;;;4.34;54.94;102582.72;4903785;28;124807;-67
2023/03/28 03:07:48;;;;;;;9.05;2.70;;;;;;;4.35;55.17;102589.75;4889788;28;124175;-71
2023/03/28 03:10:16;;;;;;;7.63;2.53;;;;;;;4.36;55.32;102590.63;4902984;28;113400;-67
2023/03/28 03:12:46;;;;;;;10.23;2.65;;;;;;;4.33;55.21;102586.22;4890675;28;113600;-67
2023/03/28 03:15:15;;;;;;;9.02;2.72;;;;;;;4.34;55.34;102587.09;4900555;28;126196;-67
2023/03/28 03:17:54;;;;;;;6.10;2.30;;;;;;;4.33;55.66;102586.22;4897517;28;123180;-67
2023/03/28 03:20:32;;;;;;;8.50;2.42;;;;;;;4.32;55.51;102584.47;4901239;28;115293;-67
2023/03/28 03:23:00;;;;;;;5.43;2.65;;;;;;;4.32;55.44;102589.72;4895854;28;114666;-67
2023/03/28 03:25:30;;;;;;;10.23;2.70;;;;;;;4.31;55.55;102587.06;4894962;28;123190;-67
2023/03/28 03:28:20;;;;;;;4.88;2.33;;;;;;;4.28;55.46;102582.69;4889930;28;123873;-68
2023/03/28 03:30:51;;;;;;;5.57;2.55;;;;;;;4.27;55.35;102588.78;4909705;28;114841;-67
2023/03/28 03:33:36;;;;;;;4.88;2.60;;;;;;;4.28;55.67;102582.69;4889731;28;114371;-67
2023/03/28 03:36:05;;;;;;;6.45;2.83;;;;;;;4.27;55.60;102586.16;4889243;28;123212;-67
2023/03/28 03:38:33;;;;;;;8.38;2.67;;;;;;;4.28;55.56;102593.19;4896829;28;124079;-66
2023/03/28 03:41:01;;;;;;;5.75;2.47;;;;;;;4.28;55.43;102593.19;4903687;28;115255;-66
2023/03/28 03:43:29;;;;;;;8.23;2.75;;;;;;;4.27;55.29;102588.78;4901076;28;113997;-66
2023/03/28 03:45:56;;;;;;;8.27;2.80;;;;;;;4.27;55.31;102588.78;4905727;28;123690;-66
2023/03/28 03:48:26;;;;;;;9.27;2.70;;;;;;;4.27;55.35;102587.03;4894580;28;123041;-67
2023/03/28 03:50:57;;;;;;;6.43;2.75;;;;;;;4.27;55.34;102579.16;4885288;28;113223;-67
2023/03/28 03:53:24;;;;;;;9.52;2.55;;;;;;;4.26;55.43;102573.94;4896046;28;113169;-67
2023/03/28 03:56:14;;;;;;;5.78;2.70;;;;;;;4.24;55.30;102580.91;4895834;28;124561;-67
2023/03/28 03:59:01;;;;;;;7.55;2.80;;;;;;;4.23;55.33;102585.25;4897329;28;124873;-67
2023/03/28 04:01:31;;;;;;;8.30;2.88;;;;;;;4.23;55.55;102579.13;4895538;28;113464;-67
2023/03/28 04:04:11;;;;;;;6.05;2.70;;;;;;;4.22;55.44;102582.59;4896426;28;113363;-66
2023/03/28 04:07:01;;;;;;;7.10;3.08;;;;;;;4.22;55.45;102577.34;4905030;28;123215;-66
2023/03/28 04:09:29;;;;;;;6.10;3.00;;;;;;;4.22;55.45;102587.84;4919618;28;124580;-66
2023/03/28 04:12:04;;;;;;;6.15;2.80;;;;;;;4.21;55.41;102580.88;4919642;28;115408;-66
2023/03/28 04:14:42;;;;;;;7.38;2.97;;;;;;;4.19;55.39;102582.59;4904899;28;114884;-66
2023/03/28 04:17:28;;;;;;;;;;;;;;;4.18;55.50;102586.06;4922654;28;124856;-66
2023/03/28 04:19:59;;;;;;;9.07;3.03;;;;;;;4.18;55.58;102591.31;4905524;28;123110;-66
2023/03/28 04:22:29;;;;;;;7.80;3.03;;;;;;;4.16;55.44;102590.41;4903660;28;113541;-66
2023/03/28 04:24:57;;;;;;;9.65;2.92;;;;;;;4.15;55.68;102591.31;4902517;28;113363;-66
2023/03/28 04:27:36;;;;;;;8.15;2.83;;;;;;;4.13;55.43;102590.41;4902656;28;123590;-66
2023/03/28 04:30:03;;;;;;;8.00;3.30;;;;;;;4.13;55.68;102582.56;4904204;28;123141;-66
2023/03/28 04:32:53;;;;;;;6.50;2.95;;;;;;;4.13;55.70;102587.78;4918818;28;114983;-65
2023/03/28 04:35:28;;;;;;;12.55;3.17;;;;;;;4.13;55.59;102582.56;4891045;28;113891;-66
2023/03/28 04:37:56;;;;;;;7.28;3.40;;;;;;;4.12;55.51;102581.66;4901438;28;124850;-65
2023/03/28 04:40:26;;;;;;;6.30;3.17;;;;;;;4.13;55.63;102577.31;4895785;28;123014;-67
2023/03/28 04:43:20;;;;;;;8.97;3.07;;;;;;;4.13;55.56;102582.56;4872799;28;113088;-67
2023/03/28 04:45:52;;;;;;;11.68;3.03;;;;;;;4.13;55.91;102580.78;4878347;28;112960;-67
2023/03/28 04:48:21;;;;;;;11.15;3.13;;;;;;;4.15;55.65;102583.44;4888400;28;123288;-67
2023/03/28 04:50:48;;;;;;;10.75;3.05;;;;;;;4.15;55.72;102580.81;4905320;28;123158;-66
2023/03/28 04:53:16;;;;;;;8.27;2.97;;;;;;;4.14;55.58;102579.03;4901344;28;115076;-66
2023/03/28 04:56:07;;;;;;;5.93;3.20;;;;;;;4.13;55.76;102579.94;4904301;28;115100;-67
2023/03/28 04:58:35;;;;;;;7.07;3.13;;;;;;;4.13;55.78;102587.78;4892504;28;123013;-67
2023/03/28 05:01:02;;;;;;;10.98;3.20;;;;;;;4.13;55.63;102587.78;4894700;28;124166;-66
2023/03/28 05:03:55;;;;;;;9.52;3.38;;;;;;;4.10;55.91;102589.50;4905800;28;116189;-66
2023/03/28 05:06:24;;;;;;;10.55;2.67;;;;;;;4.09;55.58;102593.00;4873700;28;113818;-66
2023/03/28 05:08:52;;;;;;;10.25;3.30;;;;;;;4.08;55.56;102601.72;4882628;28;123688;-66
2023/03/28 05:11:24;;;;;;;5.90;2.65;;;;;;;4.07;55.66;102593.84;4887332;28;123251;-66
2023/03/28 05:13:51;;;;;;;5.47;2.80;;;;;;;4.06;55.55;102592.09;4904388;28;114782;-66
2023/03/28 05:16:27;;;;;;;9.32;2.75;;;;;;;4.07;55.74;102594.72;4891479;28;113508;-66
2023/03/28 05:19:27;;;;;;;4.75;2.85;;;;;;;4.06;55.53;102592.94;4905180;28;124097;-66
2023/03/28 05:22:02;;;;;;;8.73;3.00;;;;;;;4.05;55.87;102595.56;4881905;28;126216;-66
2023/03/28 05:24:30;;;;;;;10.27;2.70;;;;;;;4.05;55.45;102604.31;4895166;28;113527;-66
2023/03/28 05:26:57;;;;;;;5.32;2.75;;;;;;;4.04;55.49;102599.94;4885726;28;113051;-66
2023/03/28 05:29:25;;;;;;;7.03;2.88;;;;;;;4.05;55.39;102612.19;4890426;28;123637;-66
2023/03/28 05:31:53;;;;;;;12.18;3.22;;;;;;;4.04;55.70;102610.41;4885602;28;123479;-66
2023/03/28 05:34:27;;;;;;;9.35;3.22;;;;;;;4.03;55.78;102608.66;4888082;28;113558;-66
2023/03/28 05:36:56;;;;;;;9.05;3.33;;;;;;;4.04;55.84;102615.66;4892837;28;113143;-67
2023/03/28 05:39:28;;;;;;;6.78;3.15;;;;;;;4.03;55.64;102613.91;4885972;28;122820;-67
2023/03/28 05:42:02;;;;;;;8.88;3.22;;;;;;;4.04;55.66;102626.13;4892214;28;123486;-66
2023/03/28 05:44:29;;;;;;;8.48;3.78;;;;;;;4.05;55.72;102627.91;4902322;28;114424;-67
2023/03/28 05:47:19;;;;;;;9.00;3.72;;;;;;;4.04;55.74;102633.13;4878211;28;115148;-67
2023/03/28 05:49:47;;;;;;;11.05;4.10;;;;;;;4.05;55.81;102622.66;4885602;28;123127;-67
2023/03/28 05:52:14;;;;;;;10.00;3.45;;;;;;;4.06;55.77;102629.66;4880678;28;123668;-67
2023/03/28 05:54:44;;;;;;;7.65;3.47;;;;;;;4.07;55.78;102620.94;4886525;28;114294;-67
2023/03/28 05:57:21;;;;;;;7.90;3.60;;;;;;;4.09;55.67;102620.97;4887646;28;117237;-69
2023/03/28 05:59:49;;;;;;;14.57;3.35;;;;;;;4.09;55.94;102619.22;4884486;28;123102;-66
2023/03/28 06:02:21;;;;;;;6.18;3.78;;;;;;;4.10;55.98;102623.56;4891388;28;123065;-66
2023/03/28 06:04:52;;;;;;;8.05;3.30;;;;;;;4.14;55.82;102621.00;4887275;28;113984;-66
2023/03/28 06:07:21;;;;;;;8.18;4.20;;;;;;;4.15;55.81;102622.78;4916399;28;114053;-66
2023/03/28 06:10:07;;;;;;;8.55;3.85;;;;;;;4.19;55.84;102624.56;4914363;28;124135;-67
2023/03/28 06:12:37;;;;;;;13.80;4.07;;;;;;;4.20;56.05;102613.19;4901642;28;122777;-67
2023/03/28 06:15:06;;;;;;;10.77;4.00;;;;;;;4.22;56.10;102620.22;4886969;28;113593;-67
2023/03/28 06:17:36;;;;;;;8.13;4.03;;;;;;;4.26;55.84;102621.13;4902912;28;113185;-67
2023/03/28 06:20:08;;;;;;;13.80;4.47;;;;;;;4.29;55.77;102615.91;4914907;28;123300;-67
2023/03/28 06:22:37;;;;;;;14.18;4.53;;;;;;;4.34;55.91;102616.84;4884971;28;123584;-67
2023/03/28 06:25:07;;;;;;;8.82;4.40;;;;;;;4.41;55.93;102615.16;4900261;28;113303;-67
2023/03/28 06:27:35;;;;;;;12.80;4.65;;;;;;;4.49;56.15;102624.84;4902825;28;113240;-67
2023/03/28 06:30:03;;;;;;;14.40;5.00;;;;;;;4.59;56.33;102617.06;4918153;28;124391;-67
2023/03/28 06:32:36;;;;;;;11.05;4.50;;;;;;;4.68;56.27;102625.88;4900366;28;126583;-67
2023/03/28 06:35:04;;;;;;;8.73;4.53;;;;;;;4.78;56.56;102616.31;4914748;28;113197;-67
2023/03/28 06:37:32;;;;;;;10.95;5.20;;;;;;;4.90;56.41;102619.91;4891769;28;113171;-67
2023/03/28 06:40:07;;;;;;;8.75;4.82;;;;;;;4.98;56.18;102613.84;4901447;28;124960;-68
2023/03/28 06:42:35;;;;;;;10.98;5.13;;;;;;;5.10;56.26;102613.03;4898516;28;123824;-68
2023/03/28 06:45:23;;;;;;;8.82;5.00;;;;;;;5.25;56.14;102621.03;4904472;28;115798;-68
2023/03/28 06:47:58;;;;;;;;;;;;;;;5.39;56.51;102614.97;4877293;28;117404;-68
2023/03/28 06:50:50;;;;;;;13.88;5.35;;;;;;;5.59;56.47;102621.19;4878993;28;123250;-69
2023/03/28 06:53:20;;;;;;;12.80;5.13;;;;;;;5.79;56.88;102623.03;4908352;28;123787;-69
2023/03/28 06:55:49;;;;;;;15.90;5.72;;;;;;;6.02;56.81;102634.53;4897812;28;113390;-69
2023/03/28 06:58:17;;;;;;;11.70;5.40;;;;;;;6.23;56.75;102617.94;4887756;28;113585;-69
2023/03/28 07:00:51;;;;;;;17.17;6.67;;;;;;;6.47;56.76;102620.59;4895340;28;123119;-69
2023/03/28 07:03:37;;;;;;;14.07;5.32;;;;;;;6.69;56.94;102617.06;4911954;28;124806;-69
2023/03/28 07:06:08;;;;;;;12.00;5.60;;;;;;;6.87;56.79;102615.31;4895424;28;113630;-69
2023/03/28 07:08:36;;;;;;;13.70;5.68;;;;;;;7.05;56.54;102619.69;4900162;28;112945;-69
2023/03/28 07:11:03;;;;;;;13.15;5.82;;;;;;;7.12;56.22;102617.03;4890213;28;124208;-69
2023/03/28 07:13:32;;;;;;;10.73;5.10;;;;;;;7.19;55.76;102624.00;4895356;28;122987;-69
2023/03/28 07:16:09;;;;;;;8.30;4.68;;;;;;;7.28;56.07;102627.53;4894116;28;113449;-69
2023/03/28 07:18:37;;;;;;;11.18;5.30;;;;;;;7.32;55.61;102624.00;4895780;28;113192;-69
2023/03/28 07:21:06;;;;;;;9.63;4.45;;;;;;;7.36;55.67;102631.00;4895177;28;123109;-69
2023/03/28 07:23:35;;;;;;;12.00;5.00;;;;;;;7.39;55.41;102631.88;4912440;28;124241;-69
2023/03/28 07:26:02;;;;;;;8.75;4.68;;;;;;;7.46;55.40;102643.31;4893213;28;113508;-69
2023/03/28 07:28:29;;;;;;;11.80;5.15;;;;;;;7.51;55.60;102641.50;4896676;28;112999;-69
2023/03/28 07:30:59;;;;;;;12.27;5.05;;;;;;;7.59;55.44;102645.00;4897142;28;123292;-69
2023/03/28 07:33:27;;;;;;;13.20;5.10;;;;;;;7.68;55.53;102643.22;4869098;28;123053;-69
2023/03/28 07:36:19;;;;;;;8.45;4.45;;;;;;;7.80;55.60;102643.19;4897307;28;114292;-69
2023/03/28 07:38:54;;;;;;;9.90;5.03;;;;;;;7.94;55.42;102641.31;4898261;28;114149;-69
2023/03/28 07:41:22;;;;;;;13.02;5.18;;;;;;;8.07;55.86;102647.44;4893721;28;123791;-69
2023/03/28 07:43:49;;;;;;;10.05;4.95;;;;;;;8.21;55.79;102644.69;4878992;28;122935;-69
2023/03/28 07:46:19;;;;;;;11.40;4.55;;;;;;;8.35;55.34;102650.78;4906775;28;114405;-69
2023/03/28 07:48:47;;;;;;;10.02;4.85;;;;;;;8.49;55.49;102649.84;4895388;28;115172;-69
2023/03/28 07:51:15;;;;;;;12.77;5.50;;;;;;;8.61;55.23;102660.31;4895759;28;123429;-68
2023/03/28 07:53:42;;;;;;;11.55;5.15;;;;;;;8.72;55.28;102657.56;4894496;28;122911;-68
2023/03/28 07:56:10;;;;;;;13.32;5.28;;;;;;;8.84;55.03;102659.25;4885915;28;113346;-69
2023/03/28 07:59:06;;;;;;;9.07;4.55;;;;;;;8.93;54.90;102656.53;4891261;28;114632;-68
2023/03/28 08:01:34;;;;;;;13.57;4.97;;;;;;;8.98;54.87;102657.34;4892071;28;123311;-69
2023/03/28 08:04:03;;;;;;;13.73;5.40;;;;;;;9.03;54.38;102647.63;4897912;28;124022;-68
2023/03/28 08:06:44;;;;;;;9.57;4.65;;;;;;;9.09;54.65;102646.69;4902075;28;113297;-68
2023/03/28 08:09:14;;;;;;;8.18;4.18;;;;;;;9.14;54.53;102645.75;4923246;28;114252;-69
2023/03/28 08:11:43;;;;;;;11.10;4.68;;;;;;;9.22;54.63;102647.44;4894654;28;122878;-69
2023/03/28 08:14:15;;;;;;;9.98;4.78;;;;;;;9.29;54.14;102646.50;4905398;28;122625;-69
2023/03/28 08:16:44;;;;;;;16.63;4.78;;;;;;;9.39;54.36;102653.41;4905964;28;113457;-68
2023/03/28 08:19:12;;;;;;;9.20;4.53;;;;;;;9.53;54.48;102654.16;4902994;28;113235;-69
2023/03/28 08:22:01;;;;;;;12.25;4.50;;;;;;;9.67;54.66;102642.53;4920520;28;125315;-69
2023/03/28 08:24:32;;;;;;;10.93;4.53;;;;;;;9.82;54.64;102642.34;4905930;28;126737;-69
2023/03/28 08:27:19;;;;;;;6.57;3.72;;;;;;;9.89;54.19;102651.94;4904909;28;115761;-69
2023/03/28 08:29:50;;;;;;;8.85;3.90;;;;;;;9.93;53.89;102653.66;4889848;28;114617;-68
2023/03/28 08:32:18;;;;;;;8.52;4.18;;;;;;;9.98;53.65;102652.72;4904765;28;123160;-69
2023/03/28 08:34:46;;;;;;;9.18;3.78;;;;;;;10.02;53.63;102651.78;4904496;28;123071;-68
2023/03/28 08:37:17;;;;;;;8.25;3.67;;;;;;;10.04;53.33;102655.28;4900983;28;113533;-69
2023/03/28 08:39:47;;;;;;;6.93;3.53;;;;;;;10.08;53.35;102646.41;4894288;28;113131;-69
2023/03/28 08:42:40;;;;;;;10.68;4.10;;;;;;;10.08;53.08;102651.72;4894697;28;123487;-69
2023/03/28 08:45:32;;;;;;;8.57;3.75;;;;;;;10.13;53.25;102645.44;4896980;28;123011;-68
2023/03/28 08:48:16;;;;;;;10.45;3.70;;;;;;;10.20;53.15;102650.66;4911975;28;114421;-69
2023/03/28 08:50:56;;;;;;;8.68;3.33;;;;;;;10.25;52.79;102641.75;4885626;28;113309;-69
2023/03/28 08:53:37;;;;;;;9.07;3.13;;;;;;;10.26;52.73;102638.19;4893481;28;122782;-69
2023/03/28 08:56:06;;;;;;;6.20;3.10;;;;;;;10.31;52.95;102643.47;4895379;28;123076;-69
2023/03/28 08:58:53;;;;;;;6.63;2.92;;;;;;;10.36;52.88;102640.72;4888721;28;113168;-70
2023/03/28 09:01:22;;;;;;;6.68;2.67;;;;;;;10.44;52.95;102633.56;4880654;28;113046;-68
2023/03/28 09:03:50;;;;;;;7.22;3.13;;;;;;;10.51;52.89;102624.63;4892575;28;123014;-69
2023/03/28 09:06:23;;;;;;;8.75;2.78;;;;;;;10.58;52.83;102626.25;4893193;28;122999;-69
2023/03/28 09:08:57;;;;;;;7.43;2.30;;;;;;;10.65;52.64;102627.91;4888788;28;114364;-68
2023/03/28 09:12:14;;;;;;;6.35;2.60;;;;;;;10.76;52.48;102624.22;4889534;28;113801;-68
2023/03/28 09:15:23;;;;;;;6.47;2.50;;;;;;;10.85;52.56;102624.03;4884738;28;123233;-69
2023/03/28 09:18:18;;;;;;;4.20;1.90;;;;;;;10.90;52.13;102622.19;4902628;28;122939;-69
2023/03/28 09:21:00;;;;;;;3.92;1.92;;;;;;;10.97;52.13;102613.22;4882317;28;114386;-69
2023/03/28 09:24:04;;;;;;;5.05;1.58;;;;;;;11.00;51.78;102618.47;4892175;28;114089;-68
2023/03/28 09:27:05;;;;;;;5.80;1.88;;;;;;;11.03;51.87;102617.53;4901926;28;124609;-69
2023/03/28 09:29:38;;;;;;;5.20;2.15;;;;;;;11.07;51.68;102613.91;4889784;28;123182;-68
2023/03/28 09:32:21;;;;;;;5.65;2.22;;;;;;;11.09;51.34;102615.66;4891716;28;114454;-68
2023/03/28 09:34:50;;;;;;;5.90;1.95;;;;;;;11.16;51.38;102612.88;4889269;28;113236;-68
2023/03/28 09:37:25;;;;;;;6.68;1.90;;;;;;;11.20;51.02;102614.56;4893261;28;123631;-69
2023/03/28 09:39:57;;;;;;;4.03;1.70;;;;;;;11.22;50.86;102618.06;4886688;28;123243;-68
2023/03/28 09:42:59;;;;;;;6.18;1.98;;;;;;;11.27;50.91;102608.25;4889815;28;118316;-68
2023/03/28 09:45:57;;;;;;;7.03;1.80;;;;;;;11.33;50.79;102609.91;4897119;28;112762;-68
2023/03/28 09:48:43;;;;;;;3.90;1.77;;;;;;;11.35;50.78;102603.66;4910087;28;124904;-68
2023/03/28 09:51:16;;;;;;;6.45;1.70;;;;;;;11.38;50.51;102598.28;4893564;28;123091;-68
2023/03/28 09:53:45;;;;;;;5.10;1.60;;;;;;;11.41;50.47;102592.91;4895700;28;113884;-72
2023/03/28 09:56:36;;;;;;;7.05;1.90;;;;;;;11.45;50.11;102589.31;4890751;28;113511;-68
2023/03/28 09:59:24;;;;;;;4.50;2.03;;;;;;;11.52;50.09;102589.16;4901532;28;123301;-68
2023/03/28 10:01:57;;;;;;;3.15;1.63;;;;;;;11.56;49.80;102591.72;4881735;28;123097;-68
2023/03/28 10:04:35;;;;;;;6.07;1.92;;;;;;;11.59;49.80;102585.50;4884317;28;113541;-68
2023/03/28 10:07:12;;;;;;;6.53;1.50;;;;;;;11.61;49.56;102586.31;4903780;28;114158;-67
2023/03/28 10:09:54;;;;;;;5.53;1.50;;;;;;;11.59;49.13;102574.88;4903732;28;123288;-68
2023/03/28 10:12:35;;;;;;;3.60;1.67;;;;;;;11.58;49.22;102567.81;4898377;28;126553;-68
2023/03/28 10:15:06;;;;;;;3.85;1.52;;;;;;;11.59;49.52;102565.13;4916911;28;114347;-68
2023/03/28 10:18:03;;;;;;;3.72;1.60;;;;;;;11.63;49.22;102555.31;4884235;28;115143;-68
2023/03/28 10:20:37;;;;;;;3.55;1.30;;;;;;;11.67;48.95;102557.00;4902004;28;126589;-68
2023/03/28 10:23:06;;;;;;;4.70;1.50;;;;;;;11.69;48.91;102556.03;4903329;28;124338;-68
2023/03/28 10:25:41;;;;;;;9.07;1.60;;;;;;;11.72;48.73;102555.13;4909137;28;113494;-68
2023/03/28 10:28:35;;;;;;;5.95;1.55;;;;;;;11.74;48.52;102555.94;4902265;28;116417;-68
2023/03/28 10:31:04;;;;;;;4.07;1.50;;;;;;;11.76;48.38;102556.78;4902388;28;123159;-68
2023/03/28 10:33:41;;;;;;;8.52;1.60;;;;;;;11.77;48.01;102553.25;4903300;28;123094;-69
2023/03/28 10:36:43;;;;;;;6.65;1.52;;;;;;;11.76;48.04;102540.88;4901952;28;116685;-68
2023/03/28 10:39:22;;;;;;;5.22;1.60;;;;;;;11.78;48.05;102533.75;4879211;28;113208;-68
2023/03/28 10:42:21;;;;;;;4.47;1.25;;;;;;;11.78;47.98;102530.22;4897134;28;124581;-68
2023/03/28 10:45:04;;;;;;;3.80;1.15;;;;;;;11.78;47.98;102523.13;4883511;28;124279;-68
2023/03/28 10:47:35;;;;;;;5.72;1.60;;;;;;;11.78;47.95;102528.44;4891262;28;113367;-68
2023/03/28 10:50:20;;;;;;;4.93;1.63;;;;;;;11.78;47.58;102528.44;4890878;28;113057;-68
2023/03/28 10:52:58;;;;;;;7.60;1.70;;;;;;;11.77;47.70;102516.06;4894849;28;123143;-67
2023/03/28 10:55:39;;;;;;;6.15;1.50;;;;;;;11.79;47.95;102518.66;4889157;28;123267;-67
2023/03/28 10:58:44;;;;;;;4.43;1.45;;;;;;;11.79;47.60;102518.66;4907739;28;113919;-68
2023/03/28 11:01:21;;;;;;;4.05;1.70;;;;;;;11.77;47.68;102513.44;4870251;28;113898;-68
2023/03/28 11:04:25;;;;;;;7.40;1.75;;;;;;;11.76;47.57;102503.69;4891382;28;123118;-68
2023/03/28 11:06:56;;;;;;;7.45;1.55;;;;;;;11.79;47.50;102503.63;4887282;28;122993;-68
2023/03/28 11:09:49;;;;;;;5.75;1.52;;;;;;;11.81;47.41;102496.50;4901264;28;117661;-68
2023/03/28 11:12:59;;;;;;;8.07;1.80;;;;;;;11.85;47.37;102503.50;4889924;28;115607;-68
2023/03/28 11:15:56;;;;;;;4.35;1.70;;;;;;;11.86;47.38;102494.59;4877165;28;123225;-68
2023/03/28 11:19:05;;;;;;;3.55;1.50;;;;;;;11.90;47.57;102489.25;4890911;28;123076;-68
2023/03/28 11:21:54;;;;;;;3.63;1.92;;;;;;;11.96;47.54;102489.09;4891658;28;113889;-68
2023/03/28 11:24:37;;;;;;;7.93;2.03;;;;;;;12.03;47.55;102490.69;4879107;28;113473;-69
2023/03/28 11:27:33;;;;;;;4.65;1.90;;;;;;;12.14;47.56;102478.03;4891718;28;124187;-68
2023/03/28 11:30:15;;;;;;;5.70;1.80;;;;;;;12.21;47.35;102474.31;4894485;28;123129;-68
2023/03/28 11:32:56;;;;;;;5.13;2.00;;;;;;;12.26;47.10;102477.72;4892699;28;113980;-69
2023/03/28 11:35:31;;;;;;;;;;;;;;;12.30;47.75;102461.69;4894808;28;116137;-68
2023/03/28 11:38:13;;;;;;;4.20;1.60;;;;;;;12.40;47.52;102463.22;4893657;28;123994;-69
2023/03/28 11:40:51;;;;;;;4.53;1.60;;;;;;;12.51;47.33;102455.81;4893937;28;122940;-68
2023/03/28 11:43:35;;;;;;;4.57;1.65;;;;;;;12.62;47.28;102437.78;4884180;28;113381;-68
2023/03/28 11:46:11;;;;;;;5.88;1.40;;;;;;;12.75;46.72;102437.44;4906967;28;113361;-68
2023/03/28 11:49:03;;;;;;;3.50;1.55;;;;;;;12.80;46.73;102425.75;4897840;28;123877;-68
2023/03/28 11:52:08;;;;;;;4.90;1.65;;;;;;;12.90;46.61;102425.47;4882960;28;123104;-68
2023/03/28 11:54:46;;;;;;;5.82;1.88;;;;;;;13.00;46.56;102417.19;4894875;28;113345;-69
2023/03/28 11:57:27;;;;;;;5.32;1.70;;;;;;;13.14;46.41;102423.88;4883105;28;113620;-69
2023/03/28 12:00:28;;;;;;;5.47;1.40;;;;;;;13.21;45.72;102414.78;4891121;28;123995;-69
2023/03/28 12:03:23;;;;;;;5.57;1.70;;;;;;;13.29;45.87;102411.91;4901611;28;123111;-69
2023/03/28 12:06:04;;;;;;;5.28;1.80;;;;;;;13.37;45.73;102405.47;4900200;28;114384;-69
2023/03/28 12:08:56;;;;;;;3.83;1.65;;;;;;;13.45;45.50;102402.56;4887634;28;114190;-69
2023/03/28 12:11:39;;;;;;;3.58;1.55;;;;;;;13.53;45.27;102373.03;4899895;28;123476;-69